Time;durP1;ratioP1;P1;durP2;ratioP2;P2;SDS_P1;SDS_P2;PMS_P1;PMS_P2;Temp;Humidity;BMP_temperature;BMP_pressure;BME280_temperature;BME280_humidity;BME280_pressure;Samples;Min_cycle;Max_cycle;Signal;HPM_P1;HPM_P2
2021/08/02 00:00:56;;;;;;;3.83;1.55;;;;;;;;;;5093984;27;20134;-68
2021/08/02 00:03:25;;;;;;;3.78;1.55;;;;;;;;;;5099582;27;20523;-68
2021/08/02 00:05:54;;;;;;;5.80;1.60;;;;;;;;;;5109542;27;20460;-68
2021/08/02 00:08:21;;;;;;;4.93;1.70;;;;;;;;;;5101242;28;20459;-68
2021/08/02 00:10:51;;;;;;;8.27;2.00;;;;;;;;;;5111017;28;20039;-68
2021/08/02 00:13:38;;;;;;;5.25;1.58;;;;;;;;;;5089011;28;20038;-67
2021/08/02 00:16:05;;;;;;;5.65;1.90;;;;;;;;;;5108090;28;20039;-67
2021/08/02 00:18:32;;;;;;;8.45;1.83;;;;;;;;;;5112995;28;20569;-68
2021/08/02 00:21:00;;;;;;;5.32;1.63;;;;;;;;;;5103444;28;20040;-68
2021/08/02 00:23:26;;;;;;;4.78;1.52;;;;;;;;;;5089818;28;20058;-68
2021/08/02 00:25:53;;;;;;;4.40;1.60;;;;;;;;;;5104420;28;20104;-68
2021/08/02 00:28:20;;;;;;;5.65;1.42;;;;;;;;;;5112726;28;20032;-68
2021/08/02 00:30:46;;;;;;;6.40;1.60;;;;;;;;;;5075648;28;20052;-68
2021/08/02 00:33:12;;;;;;;6.45;1.60;;;;;;;;;;5104437;28;20041;-68
2021/08/02 00:35:41;;;;;;;3.72;1.20;;;;;;;;;;5108237;28;20144;-68
2021/08/02 00:38:08;;;;;;;4.78;1.35;;;;;;;;;;5099390;28;20123;-68
2021/08/02 00:40:44;;;;;;;3.17;1.40;;;;;;;;;;5102522;28;20581;-68
2021/08/02 00:43:13;;;;;;;5.35;1.52;;;;;;;;;;5108012;28;20062;-68
2021/08/02 00:45:40;;;;;;;6.13;1.50;;;;;;;;;;5097314;28;20502;-68
2021/08/02 00:48:11;;;;;;;6.90;1.40;;;;;;;;;;5110081;28;20039;-68
2021/08/02 00:50:38;;;;;;;5.80;1.45;;;;;;;;;;5102599;28;20407;-68
2021/08/02 00:53:06;;;;;;;5.80;1.85;;;;;;;;;;5088358;28;20043;-68
2021/08/02 00:55:34;;;;;;;5.65;1.65;;;;;;;;;;5107543;28;20071;-68
2021/08/02 00:58:07;;;;;;;6.20;1.90;;;;;;;;;;5104854;28;20043;-68
2021/08/02 01:00:33;;;;;;;5.78;1.92;;;;;;;;;;5103443;28;20164;-68
2021/08/02 01:03:03;;;;;;;6.47;1.90;;;;;;;;;;5110121;28;20034;-68
2021/08/02 01:05:30;;;;;;;3.75;1.48;;;;;;;;;;5102154;28;20035;-68
2021/08/02 01:08:02;;;;;;;6.47;2.08;;;;;;;;;;5107246;28;20480;-68
2021/08/02 01:10:29;;;;;;;6.93;1.40;;;;;;;;;;5094163;28;20093;-68
2021/08/02 01:12:58;;;;;;;5.53;1.50;;;;;;;;;;5102236;28;20039;-68
2021/08/02 01:15:24;;;;;;;7.05;1.70;;;;;;;;;;5112503;28;20032;-68
2021/08/02 01:17:50;;;;;;;5.65;2.47;;;;;;;;;;5102327;28;20032;-68
2021/08/02 01:20:17;;;;;;;6.53;1.63;;;;;;;;;;5105813;27;20067;-68
2021/08/02 01:22:44;;;;;;;4.13;1.60;;;;;;;;;;5101307;27;20457;-68
2021/08/02 01:25:29;;;;;;;2.80;1.50;;;;;;;;;;5114233;27;20031;-68
2021/08/02 01:28:13;;;;;;;3.75;1.25;;;;;;;;;;5110090;27;20387;-68
2021/08/02 01:30:44;;;;;;;4.47;1.50;;;;;;;;;;5110797;27;20090;-68
2021/08/02 01:33:11;;;;;;;6.72;1.90;;;;;;;;;;5082062;28;20073;-68
2021/08/02 01:35:37;;;;;;;8.65;1.67;;;;;;;;;;5114759;27;20107;-68
2021/08/02 01:38:04;;;;;;;7.32;1.70;;;;;;;;;;5100189;27;20490;-68
2021/08/02 01:40:30;;;;;;;6.88;1.60;;;;;;;;;;5114386;27;20519;-68
2021/08/02 01:42:57;;;;;;;5.65;1.50;;;;;;;;;;5103094;27;20120;-68
2021/08/02 01:45:24;;;;;;;3.15;1.38;;;;;;;;;;5112211;27;20263;-68
2021/08/02 01:47:56;;;;;;;4.50;1.30;;;;;;;;;;5107310;27;20598;-68
2021/08/02 01:50:26;;;;;;;7.40;1.58;;;;;;;;;;5115723;27;20043;-68
2021/08/02 01:52:55;;;;;;;7.50;1.38;;;;;;;;;;5098558;27;20055;-68
2021/08/02 01:55:22;;;;;;;6.18;1.52;;;;;;;;;;5112709;27;20091;-68
2021/08/02 01:57:50;;;;;;;4.70;1.45;;;;;;;;;;5101370;27;20118;-68
2021/08/02 02:00:16;;;;;;;5.65;1.30;;;;;;;;;;5117413;27;20518;-68
2021/08/02 02:02:47;;;;;;;5.60;1.10;;;;;;;;;;5102487;27;20760;-68
2021/08/02 02:05:19;;;;;;;3.55;1.25;;;;;;;;;;5115722;27;20192;-69
2021/08/02 02:07:53;;;;;;;3.08;1.30;;;;;;;;;;5109447;27;20491;-68
2021/08/02 02:10:21;;;;;;;6.57;1.30;;;;;;;;;;5114203;27;20044;-68
2021/08/02 02:12:47;;;;;;;5.68;1.20;;;;;;;;;;5107220;27;20368;-68
2021/08/02 02:15:14;;;;;;;8.00;1.40;;;;;;;;;;5096008;27;20040;-69
2021/08/02 02:17:42;;;;;;;7.20;1.55;;;;;;;;;;5110847;27;20039;-68
2021/08/02 02:20:08;;;;;;;2.88;1.27;;;;;;;;;;5107447;27;20044;-68
2021/08/02 02:22:36;;;;;;;5.38;1.38;;;;;;;;;;5106347;27;20039;-69
2021/08/02 02:25:04;;;;;;;4.00;1.75;;;;;;;;;;5115629;27;20043;-68
2021/08/02 02:27:30;;;;;;;5.75;1.50;;;;;;;;;;5111841;27;20119;-68
2021/08/02 02:29:56;;;;;;;5.95;1.50;;;;;;;;;;5102516;27;20440;-68
2021/08/02 02:32:23;;;;;;;6.00;1.83;;;;;;;;;;5092752;28;20385;-68
2021/08/02 02:34:50;;;;;;;3.72;1.30;;;;;;;;;;5110570;27;20039;-68
2021/08/02 02:37:17;;;;;;;5.30;1.85;;;;;;;;;;5111961;27;20139;-69
2021/08/02 02:39:43;;;;;;;6.13;1.40;;;;;;;;;;5087028;27;20076;-68
2021/08/02 02:42:10;;;;;;;5.75;1.60;;;;;;;;;;5116227;27;20126;-68
2021/08/02 02:44:37;;;;;;;5.22;1.95;;;;;;;;;;5103209;27;20043;-68
2021/08/02 02:47:04;;;;;;;5.25;2.13;;;;;;;;;;5102393;27;20051;-68
2021/08/02 02:49:31;;;;;;;4.50;1.75;;;;;;;;;;5089634;27;20032;-68
2021/08/02 02:51:57;;;;;;;4.63;2.00;;;;;;;;;;5114856;27;20090;-68
2021/08/02 02:54:25;;;;;;;3.38;1.60;;;;;;;;;;5108024;27;20469;-68
2021/08/02 02:56:55;;;;;;;4.07;1.45;;;;;;;;;;5100567;27;21364;-68
2021/08/02 02:59:22;;;;;;;4.20;1.70;;;;;;;;;;5112696;27;20035;-68
2021/08/02 03:01:50;;;;;;;8.13;2.13;;;;;;;;;;5104310;27;20138;-68
2021/08/02 03:04:16;;;;;;;3.38;1.70;;;;;;;;;;5104273;27;20502;-69
2021/08/02 03:06:43;;;;;;;5.75;1.67;;;;;;;;;;5108427;27;20115;-69
2021/08/02 03:09:11;;;;;;;3.78;1.70;;;;;;;;;;5114524;27;20436;-69
2021/08/02 03:11:38;;;;;;;3.03;1.63;;;;;;;;;;5105469;27;20044;-69
2021/08/02 03:14:04;;;;;;;3.40;1.63;;;;;;;;;;5108473;27;20537;-68
2021/08/02 03:16:31;;;;;;;5.38;1.73;;;;;;;;;;5110105;27;20043;-69
2021/08/02 03:18:57;;;;;;;9.20;1.70;;;;;;;;;;5110716;27;20028;-68
2021/08/02 03:21:25;;;;;;;4.60;1.65;;;;;;;;;;5102138;27;20039;-68
2021/08/02 03:23:51;;;;;;;3.85;1.55;;;;;;;;;;5104941;27;20028;-68
2021/08/02 03:26:21;;;;;;;7.85;1.77;;;;;;;;;;5108246;27;20047;-68
2021/08/02 03:28:48;;;;;;;4.80;1.95;;;;;;;;;;5104609;27;20121;-68
2021/08/02 03:31:20;;;;;;;5.10;1.95;;;;;;;;;;5106474;27;20544;-68
2021/08/02 03:33:47;;;;;;;11.48;1.60;;;;;;;;;;5101692;27;20051;-68
2021/08/02 03:36:15;;;;;;;4.40;1.95;;;;;;;;;;5112826;27;20059;-68
2021/08/02 03:38:41;;;;;;;4.88;1.90;;;;;;;;;;5104780;27;20077;-68
2021/08/02 03:41:09;;;;;;;8.88;2.05;;;;;;;;;;5091830;28;20515;-68
2021/08/02 03:43:36;;;;;;;6.53;2.45;;;;;;;;;;5105018;27;20487;-68
2021/08/02 03:46:04;;;;;;;6.97;2.22;;;;;;;;;;5108185;27;20039;-68
2021/08/02 03:48:31;;;;;;;6.43;2.28;;;;;;;;;;5103213;27;20114;-68
2021/08/02 03:50:57;;;;;;;5.80;1.88;;;;;;;;;;5109993;27;20052;-68
2021/08/02 03:53:23;;;;;;;4.85;1.80;;;;;;;;;;5099764;27;20673;-68
2021/08/02 03:55:51;;;;;;;10.38;2.38;;;;;;;;;;5104638;27;20031;-68
2021/08/02 03:58:17;;;;;;;5.25;1.60;;;;;;;;;;5100216;27;20036;-68
2021/08/02 04:00:43;;;;;;;4.25;2.33;;;;;;;;;;5109507;27;20044;-68
2021/08/02 04:03:10;;;;;;;7.22;2.00;;;;;;;;;;5101308;27;20039;-68
2021/08/02 04:05:36;;;;;;;7.57;2.13;;;;;;;;;;5107516;27;20117;-68
2021/08/02 04:08:03;;;;;;;7.25;2.10;;;;;;;;;;5101830;27;20402;-68
2021/08/02 04:10:30;;;;;;;4.32;2.10;;;;;;;;;;5110983;27;20039;-68
2021/08/02 04:12:57;;;;;;;4.57;2.10;;;;;;;;;;5098103;28;20043;-68
2021/08/02 04:15:23;;;;;;;5.85;2.08;;;;;;;;;;5108074;27;20032;-68
2021/08/02 04:17:49;;;;;;;5.40;2.05;;;;;;;;;;5099924;28;20118;-68
2021/08/02 04:20:15;;;;;;;4.63;2.10;;;;;;;;;;5103005;28;20039;-68
2021/08/02 04:22:41;;;;;;;8.52;2.10;;;;;;;;;;5113263;28;20040;-68
2021/08/02 04:25:08;;;;;;;5.93;2.15;;;;;;;;;;5106723;28;20047;-68
2021/08/02 04:27:35;;;;;;;7.50;2.45;;;;;;;;;;5110302;28;20496;-68
2021/08/02 04:30:01;;;;;;;5.72;2.38;;;;;;;;;;5099610;28;20395;-68
2021/08/02 04:32:27;;;;;;;3.72;1.75;;;;;;;;;;5089516;28;20044;-68
2021/08/02 04:34:53;;;;;;;6.40;2.30;;;;;;;;;;5084074;28;20763;-68
2021/08/02 04:37:20;;;;;;;10.05;2.90;;;;;;;;;;5111877;28;20479;-68
2021/08/02 04:39:46;;;;;;;6.88;2.13;;;;;;;;;;5100426;28;20031;-68
2021/08/02 04:42:12;;;;;;;9.68;2.55;;;;;;;;;;5116638;28;20050;-68
2021/08/02 04:44:38;;;;;;;6.10;2.70;;;;;;;;;;5094152;28;20073;-68
2021/08/02 04:47:04;;;;;;;7.30;2.60;;;;;;;;;;5107144;28;20040;-68
2021/08/02 04:49:31;;;;;;;7.13;2.75;;;;;;;;;;5106595;28;20494;-68
2021/08/02 04:51:57;;;;;;;12.07;3.13;;;;;;;;;;5106490;28;20105;-68
2021/08/02 04:54:23;;;;;;;7.95;3.10;;;;;;;;;;5099891;27;21941;-68
2021/08/02 04:56:49;;;;;;;5.93;2.60;;;;;;;;;;5112392;27;20044;-68
2021/08/02 04:59:15;;;;;;;8.05;3.47;;;;;;;;;;5120228;27;20110;-68
2021/08/02 05:01:41;;;;;;;11.05;3.75;;;;;;;;;;5104447;27;20058;-68
2021/08/02 05:04:08;;;;;;;8.63;3.25;;;;;;;;;;5108389;27;20049;-68
2021/08/02 05:06:35;;;;;;;8.30;2.78;;;;;;;;;;5108601;27;20123;-67
2021/08/02 05:09:01;;;;;;;9.65;2.85;;;;;;;;;;5111510;27;20043;-67
2021/08/02 05:11:27;;;;;;;9.45;3.05;;;;;;;;;;5105448;27;20463;-67
2021/08/02 05:13:53;;;;;;;6.95;2.65;;;;;;;;;;5114967;27;20036;-67
2021/08/02 05:16:19;;;;;;;5.47;3.17;;;;;;;;;;5110799;27;20042;-67
2021/08/02 05:18:45;;;;;;;8.07;2.60;;;;;;;;;;5111243;27;20093;-70
2021/08/02 05:21:12;;;;;;;7.38;3.03;;;;;;;;;;5108547;27;20042;-67
2021/08/02 05:23:38;;;;;;;10.00;2.70;;;;;;;;;;5115521;27;20093;-67
2021/08/02 05:26:04;;;;;;;4.60;2.33;;;;;;;;;;5105443;27;20035;-67
2021/08/02 05:28:31;;;;;;;7.47;2.97;;;;;;;;;;5112925;27;20073;-67
2021/08/02 05:30:57;;;;;;;5.65;2.00;;;;;;;;;;5110630;27;20047;-67
2021/08/02 05:33:23;;;;;;;5.85;2.28;;;;;;;;;;5104319;27;20040;-68
2021/08/02 05:35:49;;;;;;;5.90;2.20;;;;;;;;;;5110827;27;20039;-67
2021/08/02 05:38:16;;;;;;;7.82;2.22;;;;;;;;;;5104227;27;20031;-67
2021/08/02 05:40:42;;;;;;;5.55;1.90;;;;;;;;;;5117475;27;20039;-67
2021/08/02 05:43:08;;;;;;;6.65;1.92;;;;;;;;;;5102126;27;20032;-67
2021/08/02 05:45:34;;;;;;;12.15;1.83;;;;;;;;;;5108400;27;20040;-67
2021/08/02 05:48:00;;;;;;;5.07;1.75;;;;;;;;;;5104050;27;20067;-67
2021/08/02 05:50:28;;;;;;;4.00;1.73;;;;;;;;;;5116715;27;20520;-67
2021/08/02 05:52:54;;;;;;;6.72;1.70;;;;;;;;;;5102571;27;20559;-67
2021/08/02 05:55:20;;;;;;;5.80;1.42;;;;;;;;;;5108426;27;20438;-67
2021/08/02 05:57:48;;;;;;;7.20;1.50;;;;;;;;;;5112114;27;20598;-67
2021/08/02 06:00:15;;;;;;;7.45;1.83;;;;;;;;;;5113385;27;20039;-68
2021/08/02 06:02:41;;;;;;;5.60;1.33;;;;;;;;;;5101799;27;20384;-67
2021/08/02 06:05:08;;;;;;;6.00;1.60;;;;;;;;;;5109777;27;20032;-68
2021/08/02 06:07:36;;;;;;;5.85;1.73;;;;;;;;;;5103684;27;20048;-67
2021/08/02 06:10:02;;;;;;;4.22;1.13;;;;;;;;;;5108750;27;20050;-67
2021/08/02 06:12:29;;;;;;;7.93;1.60;;;;;;;;;;5105929;27;20043;-68
2021/08/02 06:14:59;;;;;;;6.18;1.35;;;;;;;;;;5119087;27;20036;-67
2021/08/02 06:17:26;;;;;;;6.28;1.20;;;;;;;;;;5102776;27;20178;-67
2021/08/02 06:19:52;;;;;;;6.95;1.20;;;;;;;;;;5104109;27;20036;-68
2021/08/02 06:22:18;;;;;;;6.55;1.20;;;;;;;;;;5107808;27;20058;-68
2021/08/02 06:24:45;;;;;;;6.63;1.67;;;;;;;;;;5107626;27;20046;-68
2021/08/02 06:27:11;;;;;;;5.43;1.10;;;;;;;;;;5108979;27;20039;-67
2021/08/02 06:29:38;;;;;;;4.18;1.10;;;;;;;;;;5106022;27;20043;-67
2021/08/02 06:32:05;;;;;;;5.57;1.08;;;;;;;;;;5109842;27;20379;-67
2021/08/02 06:34:42;;;;;;;6.93;1.35;;;;;;;;;;5112015;27;20039;-67
2021/08/02 06:37:08;;;;;;;6.75;1.65;;;;;;;;;;5108541;27;20054;-67
2021/08/02 06:39:35;;;;;;;7.40;0.98;;;;;;;;;;5100413;27;20036;-67
2021/08/02 06:42:01;;;;;;;6.03;1.05;;;;;;;;;;5115311;27;20420;-68
2021/08/02 06:44:27;;;;;;;4.78;1.00;;;;;;;;;;5102615;27;20039;-67
2021/08/02 06:46:53;;;;;;;10.13;1.15;;;;;;;;;;5107419;27;20034;-66
2021/08/02 06:49:20;;;;;;;9.30;1.20;;;;;;;;;;5107463;27;20027;-65
2021/08/02 06:51:46;;;;;;;5.57;1.23;;;;;;;;;;5113859;27;20047;-65
2021/08/02 06:54:12;;;;;;;3.75;0.98;;;;;;;;;;5099924;27;20082;-65
2021/08/02 06:56:38;;;;;;;5.75;1.00;;;;;;;;;;5114069;27;20519;-65
2021/08/02 06:59:04;;;;;;;5.20;1.00;;;;;;;;;;5111709;27;20062;-65
2021/08/02 07:01:30;;;;;;;3.75;0.70;;;;;;;;;;5109478;27;20039;-65
2021/08/02 07:03:56;;;;;;;6.63;0.98;;;;;;;;;;5109750;27;20085;-66
2021/08/02 07:06:23;;;;;;;8.20;1.17;;;;;;;;;;5111275;27;20048;-66
2021/08/02 07:08:49;;;;;;;4.93;0.98;;;;;;;;;;5114686;27;20106;-65
2021/08/02 07:11:15;;;;;;;7.55;1.38;;;;;;;;;;5101909;27;20598;-66
2021/08/02 07:13:41;;;;;;;5.15;1.33;;;;;;;;;;5109241;27;20294;-66
2021/08/02 07:16:07;;;;;;;4.88;0.82;;;;;;;;;;5106597;27;20074;-66
2021/08/02 07:18:34;;;;;;;4.10;0.80;;;;;;;;;;5112496;27;20140;-66
2021/08/02 07:21:00;;;;;;;12.45;2.72;;;;;;;;;;5102562;27;20095;-66
2021/08/02 07:23:27;;;;;;;6.65;1.17;;;;;;;;;;5114172;27;20054;-66
2021/08/02 07:25:53;;;;;;;6.85;0.60;;;;;;;;;;5109859;27;20044;-66
2021/08/02 07:28:19;;;;;;;6.15;1.05;;;;;;;;;;5113131;27;20063;-66
2021/08/02 07:30:46;;;;;;;5.88;0.80;;;;;;;;;;5105959;27;20035;-66
2021/08/02 07:33:12;;;;;;;4.80;0.90;;;;;;;;;;5111164;27;20064;-66
2021/08/02 07:35:38;;;;;;;4.43;0.90;;;;;;;;;;5105828;27;20044;-67
2021/08/02 07:38:04;;;;;;;4.70;0.50;;;;;;;;;;5107308;27;20056;-67
2021/08/02 07:40:30;;;;;;;5.22;0.70;;;;;;;;;;5113629;27;20040;-67
2021/08/02 07:42:57;;;;;;;4.63;0.77;;;;;;;;;;5105293;27;20102;-67
2021/08/02 07:45:23;;;;;;;5.07;0.80;;;;;;;;;;5114808;27;20436;-67
2021/08/02 07:47:49;;;;;;;4.22;0.68;;;;;;;;;;5106718;27;20487;-67
2021/08/02 07:50:16;;;;;;;6.43;1.05;;;;;;;;;;5117282;27;20434;-67
2021/08/02 07:52:43;;;;;;;6.32;0.98;;;;;;;;;;5106750;27;20051;-67
2021/08/02 07:55:10;;;;;;;7.93;0.95;;;;;;;;;;5113632;27;20181;-67
2021/08/02 07:57:36;;;;;;;3.75;0.70;;;;;;;;;;5104926;27;20032;-67
2021/08/02 08:00:06;;;;;;;8.10;1.08;;;;;;;;;;5112276;27;20489;-67
2021/08/02 08:02:33;;;;;;;6.20;1.10;;;;;;;;;;5102244;27;20051;-67
2021/08/02 08:04:59;;;;;;;7.57;1.40;;;;;;;;;;5110477;27;20051;-68
2021/08/02 08:07:25;;;;;;;8.73;0.90;;;;;;;;;;5109803;27;20074;-67
2021/08/02 08:09:51;;;;;;;7.65;0.90;;;;;;;;;;5111669;28;20046;-67
2021/08/02 08:12:17;;;;;;;6.35;0.90;;;;;;;;;;5101343;27;20048;-67
2021/08/02 08:14:44;;;;;;;6.93;0.90;;;;;;;;;;5112116;28;20071;-67
2021/08/02 08:17:10;;;;;;;7.32;0.98;;;;;;;;;;5109141;27;20039;-67
2021/08/02 08:19:36;;;;;;;5.95;1.08;;;;;;;;;;5089780;28;20051;-67
2021/08/02 08:22:02;;;;;;;6.43;0.90;;;;;;;;;;5112890;28;20069;-67
2021/08/02 08:24:28;;;;;;;9.85;1.10;;;;;;;;;;5103275;28;20035;-67
2021/08/02 08:26:54;;;;;;;6.50;0.98;;;;;;;;;;5112174;28;20035;-67
2021/08/02 08:29:20;;;;;;;4.88;0.70;;;;;;;;;;5105254;27;20460;-67
2021/08/02 08:31:47;;;;;;;4.90;0.90;;;;;;;;;;5110708;27;20378;-67
2021/08/02 08:34:13;;;;;;;6.00;0.60;;;;;;;;;;5102241;27;20028;-67
2021/08/02 08:36:39;;;;;;;2.47;0.57;;;;;;;;;;5118233;27;20053;-67
2021/08/02 08:39:06;;;;;;;5.90;0.65;;;;;;;;;;5110077;27;20088;-67
2021/08/02 08:41:32;;;;;;;5.55;1.02;;;;;;;;;;5113975;27;20120;-67
2021/08/02 08:43:58;;;;;;;5.38;0.65;;;;;;;;;;5111591;27;20051;-67
2021/08/02 08:46:25;;;;;;;4.65;0.80;;;;;;;;;;5114322;27;20543;-67
2021/08/02 08:48:51;;;;;;;5.50;0.85;;;;;;;;;;5097873;27;20087;-67
2021/08/02 08:51:19;;;;;;;3.92;0.60;;;;;;;;;;5116246;27;20505;-67
2021/08/02 08:53:46;;;;;;;3.03;0.77;;;;;;;;;;5106103;27;20053;-67
2021/08/02 08:56:15;;;;;;;5.75;0.50;;;;;;;;;;5115079;27;20042;-67
2021/08/02 08:58:41;;;;;;;5.25;1.02;;;;;;;;;;5111789;27;20036;-67
2021/08/02 09:01:07;;;;;;;5.45;0.50;;;;;;;;;;5121956;27;20047;-67
2021/08/02 09:03:33;;;;;;;4.85;0.43;;;;;;;;;;5109020;27;20039;-67
2021/08/02 09:06:06;;;;;;;4.45;0.65;;;;;;;;;;5109057;27;20534;-67
2021/08/02 09:08:42;;;;;;;4.32;0.70;;;;;;;;;;5112000;27;20043;-67
2021/08/02 09:11:08;;;;;;;4.72;0.80;;;;;;;;;;5103859;27;20047;-67
2021/08/02 09:13:36;;;;;;;5.63;0.90;;;;;;;;;;5109904;27;20518;-67
2021/08/02 09:16:21;;;;;;;6.38;1.00;;;;;;;;;;5100803;27;20040;-67
2021/08/02 09:19:08;;;;;;;3.58;0.55;;;;;;;;;;5115823;27;20051;-67
2021/08/02 09:21:40;;;;;;;4.88;0.95;;;;;;;;;;5103604;27;20479;-67
2021/08/02 09:24:06;;;;;;;4.43;0.70;;;;;;;;;;5109300;27;20043;-67
2021/08/02 09:26:33;;;;;;;3.78;0.50;;;;;;;;;;5111466;27;20038;-67
2021/08/02 09:29:00;;;;;;;4.57;0.75;;;;;;;;;;5107596;27;20069;-72
2021/08/02 09:31:33;;;;;;;4.55;0.80;;;;;;;;;;5108785;27;20071;-72
2021/08/02 09:34:04;;;;;;;2.33;0.47;;;;;;;;;;5112010;27;20038;-72
2021/08/02 09:36:40;;;;;;;3.72;0.55;;;;;;;;;;5103157;27;20046;-72
2021/08/02 09:39:10;;;;;;;2.70;0.65;;;;;;;;;;5113966;27;20472;-72
2021/08/02 09:41:36;;;;;;;5.32;0.70;;;;;;;;;;5088819;27;20052;-72
2021/08/02 09:44:04;;;;;;;4.22;0.88;;;;;;;;;;5112285;27;20032;-73
2021/08/02 09:46:30;;;;;;;4.15;0.60;;;;;;;;;;5112063;27;20038;-73
2021/08/02 09:49:03;;;;;;;2.40;0.70;;;;;;;;;;5112664;27;20088;-73
2021/08/02 09:51:41;;;;;;;3.25;0.60;;;;;;;;;;5111419;27;20140;-73
2021/08/02 09:54:07;;;;;;;4.15;0.50;;;;;;;;;;5084577;28;20034;-73
2021/08/02 09:56:33;;;;;;;2.90;0.55;;;;;;;;;;5107036;27;20028;-72
2021/08/02 09:58:59;;;;;;;4.07;0.47;;;;;;;;;;5111743;27;20066;-72
2021/08/02 10:01:26;;;;;;;4.50;0.63;;;;;;;;;;5107936;27;20103;-72
2021/08/02 10:03:52;;;;;;;4.55;0.45;;;;;;;;;;5101467;27;20181;-72
2021/08/02 10:06:19;;;;;;;3.15;0.55;;;;;;;;;;5106981;27;20031;-72
2021/08/02 10:08:45;;;;;;;3.58;0.50;;;;;;;;;;5107232;27;20039;-72
2021/08/02 10:11:12;;;;;;;1.83;0.50;;;;;;;;;;5117364;27;20047;-72
2021/08/02 10:13:42;;;;;;;3.65;0.50;;;;;;;;;;5112319;27;20043;-72
2021/08/02 10:16:28;;;;;;;3.58;0.52;;;;;;;;;;5098223;27;20513;-72
2021/08/02 10:19:01;;;;;;;2.30;0.70;;;;;;;;;;5099361;27;20121;-72
2021/08/02 10:21:37;;;;;;;4.40;0.60;;;;;;;;;;5113405;27;20040;-72
2021/08/02 10:24:07;;;;;;;3.15;0.60;;;;;;;;;;5072903;27;20056;-72
2021/08/02 10:26:33;;;;;;;3.92;0.70;;;;;;;;;;5106494;27;20046;-72
2021/08/02 10:29:02;;;;;;;3.70;0.68;;;;;;;;;;5103940;27;20035;-72
2021/08/02 10:31:29;;;;;;;5.38;0.60;;;;;;;;;;5116000;27;20036;-71
2021/08/02 10:33:56;;;;;;;5.03;0.65;;;;;;;;;;5115792;27;20544;-71
2021/08/02 10:36:23;;;;;;;2.35;0.40;;;;;;;;;;5109757;27;20039;-71
2021/08/02 10:38:50;;;;;;;3.15;0.40;;;;;;;;;;5105700;27;20036;-72
2021/08/02 10:41:26;;;;;;;3.88;0.50;;;;;;;;;;5117329;27;20036;-72
2021/08/02 10:43:52;;;;;;;2.72;0.45;;;;;;;;;;5111047;27;20226;-72
2021/08/02 10:46:28;;;;;;;2.55;0.57;;;;;;;;;;5115864;27;20376;-72
2021/08/02 10:48:55;;;;;;;2.22;0.40;;;;;;;;;;5099870;27;20038;-72
2021/08/02 10:51:23;;;;;;;3.03;0.40;;;;;;;;;;5116428;27;20114;-72
2021/08/02 10:53:57;;;;;;;3.63;0.40;;;;;;;;;;5112616;27;20044;-72
2021/08/02 10:56:25;;;;;;;3.17;0.47;;;;;;;;;;5107313;27;20120;-71
2021/08/02 10:58:51;;;;;;;2.70;0.40;;;;;;;;;;5104404;27;20039;-71
2021/08/02 11:01:20;;;;;;;3.40;0.50;;;;;;;;;;5123339;27;20402;-71
2021/08/02 11:03:46;;;;;;;3.80;0.60;;;;;;;;;;5112375;27;20027;-71
2021/08/02 11:06:14;;;;;;;3.15;0.40;;;;;;;;;;5114194;27;20386;-71
2021/08/02 11:08:56;;;;;;;2.40;0.30;;;;;;;;;;5113845;27;20472;-71
2021/08/02 11:11:28;;;;;;;1.20;0.20;;;;;;;;;;5082916;28;20037;-71
2021/08/02 11:14:04;;;;;;;3.72;0.40;;;;;;;;;;5115782;27;20406;-71
2021/08/02 11:16:31;;;;;;;1.55;0.22;;;;;;;;;;5109693;27;20058;-71
2021/08/02 11:18:57;;;;;;;2.42;0.30;;;;;;;;;;5114024;27;20092;-71
2021/08/02 11:21:26;;;;;;;3.15;0.50;;;;;;;;;;5116140;27;20073;-71
2021/08/02 11:23:56;;;;;;;4.57;0.47;;;;;;;;;;5079564;28;20079;-71
2021/08/02 11:26:23;;;;;;;4.80;0.40;;;;;;;;;;5101786;27;20035;-71
2021/08/02 11:28:51;;;;;;;1.02;0.28;;;;;;;;;;5114229;27;20476;-71
2021/08/02 11:31:17;;;;;;;2.17;0.30;;;;;;;;;;5113514;27;20134;-71
2021/08/02 11:33:44;;;;;;;1.90;0.40;;;;;;;;;;5109683;27;20549;-70
2021/08/02 11:36:21;;;;;;;1.75;0.30;;;;;;;;;;5108268;27;20039;-70
2021/08/02 11:38:48;;;;;;;2.38;1.05;;;;;;;;;;5105869;27;20051;-71
2021/08/02 11:41:28;;;;;;;2.83;0.35;;;;;;;;;;5112241;27;20076;-71
2021/08/02 11:43:56;;;;;;;2.53;0.52;;;;;;;;;;5108328;27;20036;-71
2021/08/02 11:46:23;;;;;;;3.33;0.22;;;;;;;;;;5105224;27;20114;-71
2021/08/02 11:48:49;;;;;;;2.10;0.45;;;;;;;;;;5112687;27;20028;-71
2021/08/02 11:51:17;;;;;;;1.90;0.32;;;;;;;;;;5105506;27;20044;-70
2021/08/02 11:53:43;;;;;;;1.67;0.30;;;;;;;;;;5113225;27;20035;-70
2021/08/02 11:56:10;;;;;;;2.65;0.40;;;;;;;;;;5108975;27;20081;-70
2021/08/02 11:58:40;;;;;;;2.25;0.40;;;;;;;;;;5118809;27;20042;-70
2021/08/02 12:01:06;;;;;;;2.70;0.35;;;;;;;;;;5102922;27;20039;-70
2021/08/02 12:03:33;;;;;;;2.65;0.45;;;;;;;;;;5111930;27;20111;-70
2021/08/02 12:06:03;;;;;;;3.22;0.40;;;;;;;;;;5107942;27;20694;-71
2021/08/02 12:08:29;;;;;;;2.47;0.30;;;;;;;;;;5117438;27;20035;-70
2021/08/02 12:10:59;;;;;;;3.15;0.52;;;;;;;;;;5111251;27;20044;-70
2021/08/02 12:13:25;;;;;;;3.15;0.30;;;;;;;;;;5103734;27;20126;-70
2021/08/02 12:15:52;;;;;;;2.30;0.30;;;;;;;;;;5117694;27;20036;-70
2021/08/02 12:18:22;;;;;;;2.42;0.22;;;;;;;;;;5110313;27;20117;-70
2021/08/02 12:20:48;;;;;;;2.00;0.30;;;;;;;;;;5111506;27;20042;-70
2021/08/02 12:23:21;;;;;;;4.15;0.30;;;;;;;;;;5105059;27;20063;-70
2021/08/02 12:25:48;;;;;;;1.90;0.40;;;;;;;;;;5110931;28;20468;-70
2021/08/02 12:28:14;;;;;;;3.50;0.52;;;;;;;;;;5105978;28;20039;-70
2021/08/02 12:30:42;;;;;;;3.28;0.60;;;;;;;;;;5110562;28;20040;-70
2021/08/02 12:33:09;;;;;;;4.05;0.43;;;;;;;;;;5104102;28;20507;-70
2021/08/02 12:35:36;;;;;;;2.75;0.40;;;;;;;;;;5114523;28;20040;-70
2021/08/02 12:38:03;;;;;;;2.10;0.30;;;;;;;;;;5110868;28;20035;-70
2021/08/02 12:40:30;;;;;;;3.00;0.20;;;;;;;;;;5109574;28;20032;-70
2021/08/02 12:42:56;;;;;;;1.67;0.38;;;;;;;;;;5110126;28;20028;-70
2021/08/02 12:45:22;;;;;;;4.57;0.80;;;;;;;;;;5118010;28;20047;-70
2021/08/02 12:47:49;;;;;;;3.65;0.82;;;;;;;;;;5099990;28;20045;-70
2021/08/02 12:50:16;;;;;;;2.38;0.40;;;;;;;;;;5110966;28;20032;-70
2021/08/02 12:52:44;;;;;;;2.95;0.30;;;;;;;;;;5106223;28;20051;-70
2021/08/02 12:55:11;;;;;;;2.92;0.40;;;;;;;;;;5114293;28;20046;-70
2021/08/02 12:57:41;;;;;;;4.68;0.50;;;;;;;;;;5108615;28;20035;-70
2021/08/02 13:00:09;;;;;;;2.45;0.30;;;;;;;;;;5105513;28;20084;-69
2021/08/02 13:02:35;;;;;;;2.53;0.30;;;;;;;;;;5114751;28;20480;-69
2021/08/02 13:05:01;;;;;;;2.45;0.30;;;;;;;;;;5106843;28;20050;-69
2021/08/02 13:07:28;;;;;;;1.17;0.20;;;;;;;;;;5108305;28;20028;-69
2021/08/02 13:09:55;;;;;;;2.22;0.35;;;;;;;;;;5106051;28;20071;-69
2021/08/02 13:12:22;;;;;;;3.35;0.30;;;;;;;;;;5113359;28;20046;-69
2021/08/02 13:14:48;;;;;;;1.73;0.43;;;;;;;;;;5104924;28;20531;-69
2021/08/02 13:17:14;;;;;;;2.35;0.38;;;;;;;;;;5112434;27;20059;-68
2021/08/02 13:19:43;;;;;;;2.33;0.25;;;;;;;;;;5113057;27;20042;-68
2021/08/02 13:22:19;;;;;;;2.33;0.20;;;;;;;;;;5099199;27;20054;-68
2021/08/02 13:27:30;;;;;;;1.83;0.20;;;;;;;;;;5112666;27;20036;-68
2021/08/02 13:29:56;;;;;;;2.42;0.22;;;;;;;;;;5113127;27;20031;-68
2021/08/02 13:32:23;;;;;;;1.13;0.20;;;;;;;;;;5123249;27;20044;-68
2021/08/02 13:34:49;;;;;;;1.45;0.25;;;;;;;;;;5103031;27;20452;-68
2021/08/02 13:37:15;;;;;;;1.38;0.30;;;;;;;;;;5114403;27;20467;-68
2021/08/02 13:39:42;;;;;;;2.88;0.20;;;;;;;;;;5113225;27;20429;-68
2021/08/02 13:42:10;;;;;;;2.10;0.30;;;;;;;;;;5114225;27;20125;-68
2021/08/02 13:44:36;;;;;;;1.48;0.28;;;;;;;;;;5113330;27;20410;-68
2021/08/02 13:47:04;;;;;;;1.13;0.20;;;;;;;;;;5111655;27;20047;-68
2021/08/02 13:49:32;;;;;;;1.52;0.20;;;;;;;;;;5118133;27;20053;-68
2021/08/02 13:51:59;;;;;;;0.75;0.10;;;;;;;;;;5091113;27;20140;-68
2021/08/02 13:54:25;;;;;;;2.33;0.20;;;;;;;;;;5111699;27;20479;-68
2021/08/02 13:56:51;;;;;;;1.95;0.28;;;;;;;;;;5110903;27;20040;-68
2021/08/02 13:59:17;;;;;;;0.98;0.30;;;;;;;;;;5121432;27;20036;-68
2021/08/02 14:01:43;;;;;;;1.38;0.20;;;;;;;;;;5104000;27;20063;-68
2021/08/02 14:04:10;;;;;;;5.38;0.28;;;;;;;;;;5113188;27;20354;-68
2021/08/02 14:06:37;;;;;;;2.00;0.30;;;;;;;;;;5108756;27;20035;-68
2021/08/02 14:09:04;;;;;;;1.35;0.30;;;;;;;;;;5115171;27;20031;-68
2021/08/02 14:11:30;;;;;;;1.00;0.30;;;;;;;;;;5106308;27;20105;-68
2021/08/02 14:13:57;;;;;;;2.38;0.00;;;;;;;;;;5117956;27;20111;-68
2021/08/02 14:16:25;;;;;;;1.55;0.17;;;;;;;;;;5108610;27;20115;-68
2021/08/02 14:19:09;;;;;;;6.03;0.22;;;;;;;;;;5113679;27;20040;-68
2021/08/02 14:21:36;;;;;;;2.17;0.20;;;;;;;;;;5104582;27;20126;-68
2021/08/02 14:24:03;;;;;;;1.13;0.10;;;;;;;;;;5113207;27;20055;-68
2021/08/02 14:26:30;;;;;;;6.38;0.80;;;;;;;;;;5115871;27;20096;-68
2021/08/02 14:28:56;;;;;;;2.63;0.20;;;;;;;;;;5115542;27;20031;-68
2021/08/02 14:31:22;;;;;;;1.48;0.20;;;;;;;;;;5107391;27;20046;-68
2021/08/02 14:33:50;;;;;;;0.77;0.30;;;;;;;;;;5108232;27;20044;-68
2021/08/02 14:36:16;;;;;;;2.65;0.38;;;;;;;;;;5119262;27;20062;-68
2021/08/02 14:38:48;;;;;;;4.50;0.30;;;;;;;;;;5109463;27;20075;-68
2021/08/02 14:41:28;;;;;;;2.08;0.20;;;;;;;;;;5115984;27;20122;-68
2021/08/02 14:43:56;;;;;;;3.70;0.40;;;;;;;;;;5106814;27;20058;-68
2021/08/02 14:46:24;;;;;;;4.78;0.30;;;;;;;;;;5117207;27;20526;-68
2021/08/02 14:48:51;;;;;;;1.38;0.20;;;;;;;;;;5110580;27;20134;-68